Time;durP1;ratioP1;P1;durP2;ratioP2;P2;SDS_P1;SDS_P2;PMS_P1;PMS_P2;Temp;Humidity;BMP_temperature;BMP_pressure;BME280_temperature;BME280_humidity;BME280_pressure;Samples;Min_cycle;Max_cycle;Signal;HPM_P1;HPM_P2
2022/12/13 00:01:40;;;;;;;31.98;17.10;;;;;;;-0.67;71.50;101301.28;5065360;28;20445;-42
2022/12/13 00:04:07;;;;;;;32.78;17.25;;;;;;;-0.67;71.64;101296.25;5064998;28;20123;-48
2022/12/13 00:06:33;;;;;;;35.55;18.00;;;;;;;-0.68;71.41;101294.47;5065155;28;20423;-51
2022/12/13 00:08:59;;;;;;;31.77;17.50;;;;;;;-0.73;71.36;101290.69;5063979;28;20364;-51
2022/12/13 00:11:25;;;;;;;37.22;18.33;;;;;;;-0.75;71.76;101287.19;5064665;28;20111;-50
2022/12/13 00:13:51;;;;;;;30.42;17.70;;;;;;;-0.77;72.09;101295.41;5064348;28;20489;-48
2022/12/13 00:16:21;;;;;;;31.92;17.30;;;;;;;-0.76;71.43;101297.16;5063090;28;20072;-51
2022/12/13 00:18:48;;;;;;;33.45;17.55;;;;;;;-0.84;71.51;101294.91;5060415;28;20494;-51
2022/12/13 00:21:16;;;;;;;37.28;17.70;;;;;;;-0.86;71.88;101291.38;5070195;28;20029;-51
2022/12/13 00:23:42;;;;;;;34.15;18.08;;;;;;;-0.88;71.74;101287.84;5063794;28;20079;-49
2022/12/13 00:26:16;;;;;;;36.85;17.83;;;;;;;-0.87;71.80;101286.19;5064864;28;20062;-50
2022/12/13 00:28:41;;;;;;;36.35;18.15;;;;;;;-0.92;71.39;101292.53;5060268;28;20056;-46
2022/12/13 00:31:08;;;;;;;33.38;16.95;;;;;;;-0.98;71.35;101287.84;5059292;28;20398;-50
2022/12/13 00:33:33;;;;;;;32.63;17.17;;;;;;;-0.96;71.23;101295.59;5060796;28;20600;-50
2022/12/13 00:36:01;;;;;;;35.53;17.48;;;;;;;-0.97;71.18;101284.59;5061506;28;20115;-48
2022/12/13 00:38:27;;;;;;;36.60;18.00;;;;;;;-1.03;70.91;101283.19;5059179;28;20035;-48
2022/12/13 00:40:52;;;;;;;27.73;16.70;;;;;;;-1.06;71.30;101286.38;5057650;28;20036;-46
2022/12/13 00:43:17;;;;;;;37.75;18.15;;;;;;;-1.03;71.36;101280.66;5060684;28;20043;-54
2022/12/13 00:45:43;;;;;;;34.33;16.60;;;;;;;-1.10;71.07;101285.22;5062501;28;20040;-50
2022/12/13 00:48:09;;;;;;;32.15;17.17;;;;;;;-1.13;71.42;101282.47;5059187;28;20036;-47
2022/12/13 00:50:34;;;;;;;32.00;16.90;;;;;;;-1.12;71.27;101285.88;5062235;28;20037;-49
2022/12/13 00:53:00;;;;;;;30.75;16.95;;;;;;;-1.11;71.46;101280.94;5059606;28;20037;-43
2022/12/13 00:55:26;;;;;;;34.15;17.27;;;;;;;-1.14;71.50;101280.72;5060100;28;20056;-48
2022/12/13 00:57:51;;;;;;;30.38;17.38;;;;;;;-1.08;71.19;101282.84;5059433;28;20036;-46
2022/12/13 01:00:17;;;;;;;36.55;17.02;;;;;;;-1.11;70.55;101278.41;5064782;28;20125;-49
2022/12/13 01:02:43;;;;;;;29.05;16.23;;;;;;;-1.11;70.94;101280.06;5064686;28;20028;-51
2022/12/13 01:05:09;;;;;;;35.05;17.42;;;;;;;-1.15;71.09;101278.06;5062977;28;20044;-51
2022/12/13 01:07:35;;;;;;;30.23;16.90;;;;;;;-1.15;71.09;101276.44;5064089;28;20036;-47
2022/12/13 01:10:01;;;;;;;29.15;15.95;;;;;;;-1.16;70.69;101277.16;5064195;28;20029;-51
2022/12/13 01:12:26;;;;;;;32.25;16.80;;;;;;;-1.19;70.39;101283.63;5063822;28;20461;-51
2022/12/13 01:14:52;;;;;;;32.20;16.95;;;;;;;-1.27;70.52;101277.06;5062406;28;20032;-48
2022/12/13 01:17:17;;;;;;;31.67;16.45;;;;;;;-1.27;70.48;101279.59;5061570;28;20090;-52
2022/12/13 01:19:43;;;;;;;33.58;16.48;;;;;;;-1.31;70.77;101270.88;5063661;28;20545;-50
2022/12/13 01:22:10;;;;;;;33.33;16.05;;;;;;;-1.35;70.72;101272.25;5063597;28;20029;-47
2022/12/13 01:24:36;;;;;;;30.10;15.57;;;;;;;-1.38;70.90;101261.94;5062651;28;20390;-49
2022/12/13 01:27:01;;;;;;;34.95;17.17;;;;;;;-1.41;71.21;101269.22;5058902;28;20365;-51
2022/12/13 01:29:27;;;;;;;31.75;17.10;;;;;;;-1.39;71.11;101277.84;5058258;28;20074;-44
2022/12/13 01:31:53;;;;;;;31.83;16.80;;;;;;;-1.41;71.24;101274.28;5059438;28;20516;-45
2022/12/13 01:34:20;;;;;;;29.58;16.15;;;;;;;-1.40;71.11;101278.56;5058642;28;20037;-51
2022/12/13 01:36:47;;;;;;;31.90;16.13;;;;;;;-1.41;71.29;101271.75;5059133;28;20118;-50
2022/12/13 01:39:16;;;;;;;34.08;15.98;;;;;;;-1.38;71.68;101273.66;5059130;28;20540;-50
2022/12/13 01:41:48;;;;;;;27.55;15.10;;;;;;;-1.38;71.72;101268.63;5059341;28;20967;-48
2022/12/13 01:44:50;;;;;;;31.77;15.80;;;;;;;-1.38;71.54;101279.59;5060351;28;20016;-51
2022/12/13 01:47:20;;;;;;;30.27;15.45;;;;;;;-1.44;71.58;101280.72;5056629;28;20024;-51
2022/12/13 01:49:46;;;;;;;30.63;16.58;;;;;;;-1.53;71.92;101278.31;5057722;28;20482;-47
2022/12/13 01:52:13;;;;;;;26.20;15.50;;;;;;;-1.49;71.73;101279.47;5059259;28;20040;-51
2022/12/13 01:54:43;;;;;;;33.42;16.25;;;;;;;-1.57;71.79;101271.28;5058669;28;20032;-48
2022/12/13 01:57:11;;;;;;;28.92;16.30;;;;;;;-1.53;72.00;101272.38;5057265;28;20142;-49
2022/12/13 01:59:38;;;;;;;32.90;15.70;;;;;;;-1.52;72.17;101276.66;5062165;28;20025;-46
2022/12/13 02:02:05;;;;;;;29.20;15.90;;;;;;;-1.47;72.49;101275.41;5063350;28;20107;-51
2022/12/13 02:04:44;;;;;;;30.35;16.00;;;;;;;-1.44;72.15;101273.16;5063752;28;20033;-51
2022/12/13 02:07:13;;;;;;;33.83;16.33;;;;;;;-1.50;72.35;101275.19;5062184;28;20027;-50
2022/12/13 02:09:38;;;;;;;33.45;16.15;;;;;;;-1.51;73.09;101278.47;5062387;28;20037;-53
2022/12/13 02:12:04;;;;;;;29.45;15.73;;;;;;;-1.51;72.93;101278.47;5061652;28;20063;-48
2022/12/13 02:14:29;;;;;;;29.27;15.18;;;;;;;-1.52;73.07;101275.03;5061518;28;20085;-50
2022/12/13 02:17:33;;;;;;;30.55;16.42;;;;;;;-1.42;72.98;101271.63;5062419;28;20536;-45
2022/12/13 02:20:19;;;;;;;36.20;17.65;;;;;;;-1.46;73.08;101269.63;5027379;28;20037;-51
2022/12/13 02:23:19;;;;;;;37.30;15.90;;;;;;;-1.43;73.06;101275.81;5061027;28;20020;-45
2022/12/13 02:26:24;;;;;;;31.73;16.05;;;;;;;-1.47;73.66;101275.41;5060134;28;20016;-51
2022/12/13 02:29:26;;;;;;;32.70;16.45;;;;;;;-1.47;73.61;101262.81;5058952;28;20020;-51
2022/12/13 02:32:16;;;;;;;30.98;16.20;;;;;;;-1.46;73.59;101270.50;5058952;28;20078;-51
2022/12/13 02:34:53;;;;;;;31.27;15.98;;;;;;;-1.53;73.87;101274.91;5074140;28;20028;-47
2022/12/13 02:37:57;;;;;;;32.00;15.52;;;;;;;-1.51;73.71;101275.94;5059209;28;20484;-48
2022/12/13 02:40:35;;;;;;;30.50;16.15;;;;;;;-1.54;73.46;101275.69;5054913;28;20033;-48
2022/12/13 02:43:33;;;;;;;29.05;15.45;;;;;;;-1.47;73.82;101268.72;5060395;28;20027;-50
2022/12/13 02:46:01;;;;;;;30.00;15.68;;;;;;;-1.53;73.47;101263.19;5057655;28;20025;-50
2022/12/13 02:48:32;;;;;;;28.30;15.90;;;;;;;-1.55;73.86;101266.34;5059520;28;20028;-50
2022/12/13 02:51:01;;;;;;;31.20;16.17;;;;;;;-1.58;73.42;101263.56;5058065;28;20024;-51
2022/12/13 02:53:28;;;;;;;29.25;16.08;;;;;;;-1.62;73.64;101250.72;5056056;28;20024;-51
2022/12/13 02:55:53;;;;;;;32.28;16.30;;;;;;;-1.61;73.90;101249.06;5058797;28;20068;-44
2022/12/13 02:58:23;;;;;;;35.13;16.13;;;;;;;-1.60;74.47;101244.91;5058951;28;20060;-45
2022/12/13 03:01:13;;;;;;;30.48;16.13;;;;;;;-1.59;73.91;101246.66;5060166;28;20052;-50
2022/12/13 03:03:55;;;;;;;36.80;16.52;;;;;;;-1.59;74.37;101247.56;5062246;28;20060;-45
2022/12/13 03:06:29;;;;;;;30.48;15.52;;;;;;;-1.65;74.47;101242.88;5062109;28;20040;-43
2022/12/13 03:09:06;;;;;;;33.53;16.83;;;;;;;-1.63;74.67;101241.41;5062737;28;20020;-50
2022/12/13 03:14:35;;;;;;;30.80;15.80;;;;;;;-1.61;74.53;101239.00;5062801;28;20047;-49
2022/12/13 03:17:04;;;;;;;33.08;15.95;;;;;;;-1.59;74.26;101237.47;5060727;28;20090;-49
2022/12/13 03:19:29;;;;;;;28.55;15.57;;;;;;;-1.64;74.14;101239.63;5062362;28;20899;-47
2022/12/13 03:21:55;;;;;;;34.30;16.55;;;;;;;-1.62;74.22;101240.63;5062829;28;20048;-46
2022/12/13 03:24:20;;;;;;;32.00;16.23;;;;;;;-1.62;74.41;101240.63;5062664;28;20036;-49
2022/12/13 03:26:48;;;;;;;30.70;16.17;;;;;;;-1.64;74.64;101243.75;5063154;28;20020;-48
2022/12/13 03:29:14;;;;;;;30.10;15.77;;;;;;;-1.65;74.84;101244.53;5064832;28;20492;-50
2022/12/13 03:31:39;;;;;;;31.50;15.68;;;;;;;-1.63;74.70;101243.03;5065589;28;20033;-42
2022/12/13 03:34:05;;;;;;;29.85;16.80;;;;;;;-1.68;74.52;101247.69;5063436;28;20658;-46
2022/12/13 03:36:31;;;;;;;33.25;16.63;;;;;;;-1.70;74.69;101249.22;5065514;28;20028;-51
2022/12/13 03:38:56;;;;;;;32.40;15.75;;;;;;;-1.71;74.66;101249.94;5065786;28;20024;-50
2022/12/13 03:41:30;;;;;;;31.83;17.20;;;;;;;-1.68;74.68;101252.72;5065573;28;20032;-51
2022/12/13 03:44:02;;;;;;;30.23;16.27;;;;;;;-1.70;74.81;101244.16;5067035;28;20021;-51
2022/12/13 03:46:27;;;;;;;30.33;16.17;;;;;;;-1.73;74.68;101250.59;5065240;28;20024;-50
2022/12/13 03:48:52;;;;;;;33.50;15.63;;;;;;;-1.73;74.16;101246.41;5065940;28;20762;-46
2022/12/13 03:51:18;;;;;;;32.85;17.52;;;;;;;-1.73;74.10;101243.91;5065104;28;20034;-49
2022/12/13 03:53:43;;;;;;;27.85;15.52;;;;;;;-1.76;74.34;101243.66;5067205;28;20058;-48
2022/12/13 03:56:09;;;;;;;33.33;16.05;;;;;;;-1.79;74.40;101237.47;5063927;28;20041;-51
2022/12/13 03:58:35;;;;;;;33.08;17.48;;;;;;;-1.77;74.35;101241.00;5061266;28;20028;-48
2022/12/13 04:01:00;;;;;;;29.73;16.40;;;;;;;-1.76;74.30;101237.72;5062111;28;20037;-47
2022/12/13 04:03:25;;;;;;;31.17;16.90;;;;;;;-1.74;74.30;101238.75;5062164;28;20558;-51
2022/12/13 04:05:51;;;;;;;33.42;16.35;;;;;;;-1.75;74.35;101237.84;5060242;28;20497;-47
2022/12/13 04:08:16;;;;;;;31.45;16.42;;;;;;;-1.77;74.28;101226.75;5059410;28;20029;-44
2022/12/13 04:10:41;;;;;;;30.35;16.70;;;;;;;-1.76;74.05;101243.66;5062303;28;20069;-51
2022/12/13 04:15:53;;;;;;;30.27;16.67;;;;;;;-1.80;74.27;101231.53;5059433;28;20075;-48
2022/12/13 04:18:19;;;;;;;33.13;17.25;;;;;;;-1.84;74.12;101229.50;5060428;28;20033;-51
2022/12/13 04:20:45;;;;;;;31.15;16.58;;;;;;;-1.83;74.34;101231.28;5061578;28;20032;-51
2022/12/13 04:23:11;;;;;;;32.10;16.90;;;;;;;-1.79;74.25;101222.34;5061159;28;20020;-51
2022/12/13 04:25:37;;;;;;;31.20;16.20;;;;;;;-1.79;74.29;101224.88;5061767;28;20094;-57
2022/12/13 04:28:03;;;;;;;31.80;16.70;;;;;;;-1.83;74.37;101228.75;5058600;28;20504;-50
2022/12/13 04:30:28;;;;;;;30.45;16.38;;;;;;;-1.76;74.27;101223.50;5063778;28;20028;-49
2022/12/13 04:32:54;;;;;;;32.92;16.85;;;;;;;-1.75;74.50;101219.34;5065766;28;20040;-50
2022/12/13 04:35:19;;;;;;;32.70;16.77;;;;;;;-1.80;74.19;101223.09;5064918;28;20115;-42
2022/12/13 04:37:44;;;;;;;31.67;16.47;;;;;;;-1.78;73.93;101224.97;5064615;28;20037;-50
2022/12/13 04:40:10;;;;;;;32.13;16.85;;;;;;;-1.75;73.94;101221.84;5063729;28;20021;-46
2022/12/13 04:42:36;;;;;;;29.65;16.25;;;;;;;-1.79;73.96;101222.34;5065955;28;20040;-47
2022/12/13 04:45:02;;;;;;;29.77;16.38;;;;;;;-1.79;74.10;101222.34;5063383;28;20028;-50
2022/12/13 04:47:27;;;;;;;32.10;16.17;;;;;;;-1.82;73.98;101222.06;5062440;28;20074;-50
2022/12/13 04:49:54;;;;;;;27.95;15.55;;;;;;;-1.83;74.22;101217.78;5063443;28;20036;-51
2022/12/13 04:52:19;;;;;;;27.77;15.90;;;;;;;-1.85;74.29;101217.69;5064213;28;21071;-50
2022/12/13 04:54:45;;;;;;;34.25;15.88;;;;;;;-1.84;74.45;101219.44;5064082;28;20024;-50
2022/12/13 04:57:11;;;;;;;28.15;15.70;;;;;;;-1.82;74.19;101215.44;5063222;28;20061;-49
2022/12/13 04:59:37;;;;;;;34.17;16.85;;;;;;;-1.85;73.82;101219.31;5061597;28;20031;-47
2022/12/13 05:02:04;;;;;;;31.57;16.27;;;;;;;-1.89;74.24;101218.16;5060948;28;20020;-51
2022/12/13 05:04:29;;;;;;;31.38;15.82;;;;;;;-1.87;74.26;101219.19;5058554;28;20637;-43
2022/12/13 05:06:56;;;;;;;31.17;16.17;;;;;;;-1.86;74.29;101223.47;5058492;28;20028;-48
2022/12/13 05:09:21;;;;;;;31.23;16.17;;;;;;;-1.85;74.39;101220.19;5059878;28;20082;-50
2022/12/13 05:11:47;;;;;;;32.15;17.02;;;;;;;-1.86;74.34;101220.97;5059634;28;20397;-51
2022/12/13 05:14:12;;;;;;;30.45;16.08;;;;;;;-1.84;74.75;101216.03;5060679;28;20110;-44
2022/12/13 05:16:37;;;;;;;32.22;16.73;;;;;;;-1.87;74.79;101209.13;5058909;28;20047;-47
2022/12/13 05:19:03;;;;;;;31.65;16.73;;;;;;;-1.90;74.40;101208.84;5059430;28;20024;-49
2022/12/13 05:21:28;;;;;;;30.17;17.02;;;;;;;-1.88;74.93;101207.34;5059220;28;20028;-47
2022/12/13 05:23:54;;;;;;;34.85;17.30;;;;;;;-1.91;74.77;101202.94;5061383;28;20051;-49
2022/12/13 05:26:19;;;;;;;32.03;17.35;;;;;;;-1.87;74.75;101203.19;5056276;28;20032;-46
2022/12/13 05:28:44;;;;;;;34.35;17.42;;;;;;;-1.92;74.83;101201.16;5058053;28;20112;-47
2022/12/13 05:31:11;;;;;;;34.58;16.83;;;;;;;-1.90;75.43;101207.22;5057450;28;20397;-48
2022/12/13 05:33:37;;;;;;;30.75;16.63;;;;;;;-1.93;75.17;101203.56;5058023;28;20040;-51
2022/12/13 05:36:04;;;;;;;30.80;16.77;;;;;;;-1.91;74.90;101195.38;5062247;28;20027;-50
2022/12/13 05:38:30;;;;;;;34.88;17.52;;;;;;;-1.86;74.94;101194.88;5052647;28;20024;-44
2022/12/13 05:40:55;;;;;;;33.25;17.75;;;;;;;-1.84;74.82;101193.34;5060190;28;20028;-50
2022/12/13 05:43:22;;;;;;;35.63;17.63;;;;;;;-1.87;74.77;101183.03;5053995;28;20032;-51
2022/12/13 05:45:48;;;;;;;33.78;17.73;;;;;;;-1.90;75.33;101186.16;5059341;28;20025;-49
2022/12/13 05:48:14;;;;;;;34.10;17.65;;;;;;;-1.91;75.59;101180.25;5057170;28;20036;-50
2022/12/13 05:50:39;;;;;;;32.65;17.67;;;;;;;-1.91;75.45;101186.91;5060047;28;20029;-47
2022/12/13 05:53:05;;;;;;;35.63;18.00;;;;;;;-1.86;75.26;101185.66;5060145;28;20463;-48
2022/12/13 05:55:31;;;;;;;33.83;17.50;;;;;;;-1.86;75.10;101183.16;5059931;28;20589;-49
2022/12/13 05:57:57;;;;;;;35.60;18.00;;;;;;;-1.82;74.68;101187.69;5060343;28;20048;-49
2022/12/13 06:00:22;;;;;;;34.08;18.08;;;;;;;-1.86;74.87;101175.59;5058671;28;20017;-47
2022/12/13 06:02:48;;;;;;;35.08;18.25;;;;;;;-1.86;75.22;101178.09;5058265;28;20047;-41
2022/12/13 06:05:13;;;;;;;32.03;17.60;;;;;;;-1.87;75.53;101178.88;5059303;28;20050;-48
2022/12/13 06:07:39;;;;;;;33.30;17.75;;;;;;;-1.91;75.31;101181.88;5059645;28;20040;-47
2022/12/13 06:10:05;;;;;;;31.88;17.52;;;;;;;-1.90;75.51;101186.16;5063275;28;20086;-47
2022/12/13 06:12:33;;;;;;;34.88;18.00;;;;;;;-1.93;75.01;101184.28;5062588;28;20028;-48
2022/12/13 06:14:58;;;;;;;37.22;18.25;;;;;;;-1.91;75.20;101181.88;5068153;28;20662;-51
2022/12/13 06:17:24;;;;;;;38.23;18.87;;;;;;;-1.94;74.87;101191.72;5063958;28;20032;-51
2022/12/13 06:19:50;;;;;;;39.83;19.02;;;;;;;-1.93;74.78;101189.31;5062155;28;20025;-50
2022/12/13 06:22:16;;;;;;;42.40;20.42;;;;;;;-1.94;74.97;101195.13;5066536;28;20056;-47
2022/12/13 06:24:42;;;;;;;42.40;20.70;;;;;;;-1.97;75.05;101192.34;5062143;28;20780;-51
2022/12/13 06:27:07;;;;;;;48.05;21.35;;;;;;;-1.97;74.59;101189.81;5064373;28;20124;-49
2022/12/13 06:29:33;;;;;;;43.70;20.48;;;;;;;-1.97;74.20;101191.47;5064042;28;20058;-47
2022/12/13 06:32:00;;;;;;;39.50;20.13;;;;;;;-1.96;74.44;101186.53;5067483;28;20028;-50
2022/12/13 06:34:26;;;;;;;38.53;19.35;;;;;;;-1.97;74.19;101186.41;5063252;28;20733;-51
2022/12/13 06:36:51;;;;;;;43.17;20.08;;;;;;;-1.99;73.65;101192.97;5070086;28;20369;-48
2022/12/13 06:39:17;;;;;;;43.75;21.45;;;;;;;-2.05;73.78;101195.88;5070117;28;20028;-50
2022/12/13 06:41:42;;;;;;;49.10;21.33;;;;;;;-2.06;74.06;101195.72;5069791;28;20024;-46
2022/12/13 06:44:08;;;;;;;41.47;20.60;;;;;;;-2.10;73.91;101191.19;5068579;28;20040;-50
2022/12/13 06:46:33;;;;;;;40.65;21.02;;;;;;;-2.08;73.60;101194.72;5072038;28;20507;-50
2022/12/13 06:48:59;;;;;;;41.42;21.08;;;;;;;-2.06;73.79;101193.19;5067951;28;20037;-46
2022/12/13 06:51:24;;;;;;;40.80;20.47;;;;;;;-2.07;73.76;101189.78;5064657;28;20472;-50
2022/12/13 06:53:50;;;;;;;37.43;20.47;;;;;;;-2.06;73.36;101189.06;5068502;28;20032;-47
2022/12/13 06:56:15;;;;;;;39.77;20.17;;;;;;;-2.07;73.34;101186.41;5069171;28;20552;-50
2022/12/13 06:58:41;;;;;;;39.00;19.75;;;;;;;-2.05;73.51;101187.44;5067159;28;20052;-47
2022/12/13 07:01:11;;;;;;;39.15;20.35;;;;;;;-2.06;74.13;101195.72;5062584;28;20029;-50
2022/12/13 07:03:36;;;;;;;37.77;19.00;;;;;;;-2.09;73.80;101195.47;5068003;28;20040;-46
2022/12/13 07:06:10;;;;;;;35.63;19.42;;;;;;;-2.11;73.80;101187.81;5075140;28;20028;-51
2022/12/13 07:08:36;;;;;;;33.03;17.93;;;;;;;-2.12;74.39;101186.03;5066607;28;20064;-49
2022/12/13 07:11:02;;;;;;;37.20;18.97;;;;;;;-2.13;73.89;101195.97;5062162;28;20532;-49
2022/12/13 07:13:27;;;;;;;36.40;18.90;;;;;;;-2.09;73.61;101192.97;5064630;28;20064;-50
2022/12/13 07:15:53;;;;;;;33.97;18.70;;;;;;;-2.09;73.54;101198.88;5064467;28;20397;-48
2022/12/13 07:18:18;;;;;;;36.37;18.27;;;;;;;-2.06;74.05;101190.69;5064682;28;20037;-40
2022/12/13 07:20:44;;;;;;;36.95;18.48;;;;;;;-2.09;73.89;101188.78;5065974;28;20028;-50
2022/12/13 07:23:10;;;;;;;35.75;18.98;;;;;;;-2.09;73.57;101200.53;5065215;28;20111;-49
2022/12/13 07:25:35;;;;;;;37.73;18.70;;;;;;;-2.16;73.38;101191.56;5067446;28;20032;-48
2022/12/13 07:28:04;;;;;;;35.08;19.30;;;;;;;-2.14;73.89;101191.69;5065335;28;20108;-49
2022/12/13 07:30:37;;;;;;;34.55;18.80;;;;;;;-2.13;74.21;101193.44;5065785;28;20055;-45
2022/12/13 07:33:03;;;;;;;33.78;19.08;;;;;;;-2.20;73.69;101189.53;5066078;28;20032;-50
2022/12/13 07:35:31;;;;;;;36.08;19.08;;;;;;;-2.19;74.61;101197.22;5064364;28;20040;-43
2022/12/13 07:37:57;;;;;;;38.70;18.97;;;;;;;-2.16;74.91;101196.59;5063498;28;20423;-44
2022/12/13 07:40:24;;;;;;;37.70;19.45;;;;;;;-2.17;74.63;101190.69;5063304;28;20607;-48
2022/12/13 07:42:50;;;;;;;36.38;18.38;;;;;;;-2.17;74.30;101198.25;5064427;28;20111;-47
2022/12/13 07:45:15;;;;;;;37.80;20.08;;;;;;;-2.14;74.60;101194.22;5060875;28;20397;-42
2022/12/13 07:47:41;;;;;;;41.10;19.25;;;;;;;-2.17;74.42;101195.72;5064787;28;20029;-51
2022/12/13 07:50:06;;;;;;;35.33;18.77;;;;;;;-2.21;74.90;101200.38;5059302;28;20039;-52
2022/12/13 07:52:32;;;;;;;38.00;20.25;;;;;;;-2.18;74.97;101203.16;5063307;28;20032;-46
2022/12/13 07:54:57;;;;;;;36.40;19.63;;;;;;;-2.20;75.52;101203.00;5063174;28;20029;-49
2022/12/13 07:57:22;;;;;;;38.63;20.23;;;;;;;-2.14;75.35;101204.28;5059893;28;20044;-44
2022/12/13 07:59:48;;;;;;;40.57;19.67;;;;;;;-2.13;75.44;101203.53;5061725;28;20425;-42
2022/12/13 08:02:13;;;;;;;39.13;20.92;;;;;;;-2.12;75.13;101206.19;5060944;28;20047;-46
2022/12/13 08:04:38;;;;;;;38.80;20.50;;;;;;;-2.12;75.50;101203.69;5063048;28;20595;-48
2022/12/13 08:07:08;;;;;;;48.10;21.20;;;;;;;-2.05;75.63;101200.91;5059775;28;20079;-50
2022/12/13 08:09:33;;;;;;;43.78;21.38;;;;;;;-2.09;75.57;101200.53;5061610;28;20124;-49
2022/12/13 08:11:59;;;;;;;44.33;21.93;;;;;;;-2.05;75.75;101200.91;5061554;28;20477;-48
2022/12/13 08:14:25;;;;;;;40.63;21.37;;;;;;;-2.00;75.96;101201.25;5060533;28;20403;-49
2022/12/13 08:16:50;;;;;;;46.10;22.20;;;;;;;-1.99;75.97;101203.94;5065045;28;20033;-51
2022/12/13 08:19:15;;;;;;;41.07;20.97;;;;;;;-1.98;76.24;101205.69;5061563;28;20024;-47
2022/12/13 08:21:41;;;;;;;38.85;21.65;;;;;;;-2.00;76.45;101207.22;5062335;28;20111;-47
2022/12/13 08:24:07;;;;;;;37.88;20.75;;;;;;;-2.03;75.90;101201.91;5060853;28;20044;-50
2022/12/13 08:26:32;;;;;;;43.87;21.53;;;;;;;-2.05;76.38;101207.59;5061979;28;20016;-48
2022/12/13 08:28:58;;;;;;;40.63;21.43;;;;;;;-2.04;76.46;101207.72;5060730;28;20683;-50
2022/12/13 08:31:24;;;;;;;40.50;20.75;;;;;;;-2.01;76.42;101209.59;5059899;28;20058;-48
2022/12/13 08:33:49;;;;;;;39.78;21.17;;;;;;;-1.99;76.34;101213.13;5063106;28;20068;-50
2022/12/13 08:36:16;;;;;;;41.83;21.38;;;;;;;-1.98;76.51;101217.41;5059520;28;20039;-50
2022/12/13 08:38:42;;;;;;;40.67;21.60;;;;;;;-1.98;76.67;101217.41;5060149;28;20493;-50
2022/12/13 08:41:08;;;;;;;44.05;22.83;;;;;;;-1.99;76.70;101208.09;5060629;28;20032;-43
2022/12/13 08:43:34;;;;;;;40.30;21.45;;;;;;;-1.94;76.60;101210.25;5060869;28;20051;-51
2022/12/13 08:46:00;;;;;;;43.75;22.15;;;;;;;-1.92;76.54;101215.41;5062828;28;20120;-50
2022/12/13 08:48:25;;;;;;;45.70;23.40;;;;;;;-1.89;76.65;101220.69;5061379;28;20127;-51
2022/12/13 08:50:51;;;;;;;41.17;21.98;;;;;;;-1.84;76.35;101221.06;5058486;28;20033;-49
2022/12/13 08:53:16;;;;;;;46.38;22.95;;;;;;;-1.80;76.54;101225.63;5061041;28;20052;-49
2022/12/13 08:55:42;;;;;;;42.00;22.25;;;;;;;-1.74;76.65;101226.13;5067418;28;20029;-49
2022/12/13 08:58:08;;;;;;;41.20;22.50;;;;;;;-1.70;76.61;101231.56;5065940;28;20033;-50
2022/12/13 09:00:34;;;;;;;40.78;21.25;;;;;;;-1.62;76.29;101243.16;5064312;28;20085;-49
2022/12/13 09:03:02;;;;;;;46.05;22.55;;;;;;;-1.56;76.56;101241.91;5058686;28;24080;-42
2022/12/13 09:05:28;;;;;;;42.10;21.85;;;;;;;-1.51;76.22;101236.47;5056453;28;20385;-45
2022/12/13 09:07:57;;;;;;;41.38;22.23;;;;;;;-1.42;76.03;101233.81;5055220;28;20479;-52
2022/12/13 09:10:23;;;;;;;41.47;21.88;;;;;;;-1.38;75.76;101223.22;5052251;28;20574;-50
2022/12/13 09:12:49;;;;;;;41.42;22.23;;;;;;;-1.37;75.68;101222.44;5057325;28;20028;-48
2022/12/13 09:15:14;;;;;;;41.58;22.02;;;;;;;-1.37;75.61;101219.94;5055392;28;20032;-46
2022/12/13 09:17:40;;;;;;;44.33;22.90;;;;;;;-1.28;75.53;101224.81;5057260;28;20094;-51
2022/12/13 09:20:09;;;;;;;41.47;22.67;;;;;;;-1.26;76.10;101229.25;5056355;28;20107;-46
2022/12/13 09:22:35;;;;;;;43.05;21.90;;;;;;;-1.20;76.02;101228.88;5056837;28;20458;-47
2022/12/13 09:25:04;;;;;;;43.40;22.85;;;;;;;-1.13;75.90;101226.06;5058003;28;20067;-43
2022/12/13 09:27:30;;;;;;;;;;;;;;;-0.96;75.68;101230.84;5059983;28;20401;-48
2022/12/13 09:29:56;;;;;;;41.67;21.88;;;;;;;-0.99;75.42;101232.22;5060895;28;20016;-43
2022/12/13 09:32:23;;;;;;;44.35;22.58;;;;;;;-0.96;75.43;101237.53;5057087;28;20498;-47
2022/12/13 09:34:48;;;;;;;42.03;22.10;;;;;;;-0.94;75.19;101229.28;5058475;28;20020;-51
2022/12/13 09:37:13;;;;;;;38.50;22.00;;;;;;;-0.92;75.03;101235.34;5057042;28;20033;-50
2022/12/13 09:39:39;;;;;;;43.35;22.80;;;;;;;-0.84;75.69;101230.91;5062196;28;20020;-51
2022/12/13 09:42:14;;;;;;;39.78;21.52;;;;;;;-0.78;75.85;101236.47;5054831;28;20063;-41
2022/12/13 09:44:44;;;;;;;41.40;22.60;;;;;;;-0.74;75.72;101237.56;5055817;28;20087;-48
2022/12/13 09:47:14;;;;;;;;;;;;;;;-0.57;75.63;101235.59;5055334;28;20031;-46
2022/12/13 09:49:43;;;;;;;39.63;21.13;;;;;;;-0.58;75.92;101238.88;5057589;28;19966;-51
2022/12/13 09:52:17;;;;;;;41.30;22.60;;;;;;;-0.50;75.73;101236.06;5054404;28;20041;-45
2022/12/13 09:54:43;;;;;;;43.75;23.27;;;;;;;-0.46;75.39;101226.34;5060174;28;20457;-53
2022/12/13 09:57:17;;;;;;;41.05;22.65;;;;;;;-0.36;75.39;101222.88;5055051;28;20047;-49
2022/12/13 09:59:42;;;;;;;42.60;22.90;;;;;;;-0.30;75.09;101215.78;5058495;28;20020;-50
2022/12/13 10:02:20;;;;;;;42.45;22.83;;;;;;;-0.21;75.52;101202.94;5061446;28;20031;-44
2022/12/13 10:04:46;;;;;;;44.67;22.98;;;;;;;-0.16;75.43;101207.59;5059499;28;20039;-44
2022/12/13 10:07:17;;;;;;;44.88;22.75;;;;;;;-0.02;75.32;101203.56;5057957;28;20435;-47
2022/12/13 10:09:44;;;;;;;42.72;23.65;;;;;;;0.05;75.39;101202.38;5055921;28;21618;-50
2022/12/13 10:12:13;;;;;;;39.50;22.15;;;;;;;0.10;74.04;101201.09;5057520;28;20036;-49
2022/12/13 10:14:45;;;;;;;42.92;22.58;;;;;;;0.16;74.79;101207.47;5056558;28;20029;-45
2022/12/13 10:17:18;;;;;;;41.65;22.25;;;;;;;0.24;74.72;101193.78;5057614;28;20472;-50
2022/12/13 10:19:45;;;;;;;40.38;22.30;;;;;;;0.31;74.71;101187.53;5057859;28;20107;-50
2022/12/13 10:22:15;;;;;;;41.65;21.92;;;;;;;0.37;74.14;101189.63;5052270;28;20047;-46
2022/12/13 10:24:47;;;;;;;;;;;;;;;0.49;74.07;101191.41;5057430;28;20028;-49
2022/12/13 10:27:33;;;;;;;41.63;21.63;;;;;;;0.42;73.09;101193.34;5056187;28;19970;-47
2022/12/13 10:30:05;;;;;;;41.33;21.80;;;;;;;0.40;73.15;101180.59;5058101;28;20028;-51
2022/12/13 10:32:40;;;;;;;39.85;22.10;;;;;;;0.42;73.06;101176.53;5059180;28;20119;-53
2022/12/13 10:35:21;;;;;;;43.03;22.60;;;;;;;0.53;73.01;101179.84;5057603;28;20573;-50
2022/12/13 10:37:46;;;;;;;40.80;22.40;;;;;;;0.60;71.75;101174.44;5060048;28;20063;-45
2022/12/13 10:40:29;;;;;;;42.75;21.80;;;;;;;0.79;72.04;101174.16;5058304;28;20056;-46
2022/12/13 10:43:13;;;;;;;37.20;20.85;;;;;;;1.05;71.72;101163.34;5058353;28;20373;-49
2022/12/13 10:45:40;;;;;;;42.20;22.58;;;;;;;1.13;70.56;101164.75;5057064;28;20103;-49
2022/12/13 10:48:18;;;;;;;40.90;21.85;;;;;;;1.45;70.92;101161.94;5059071;28;20098;-50
2022/12/13 10:50:55;;;;;;;34.85;20.75;;;;;;;1.65;70.04;101163.31;5057900;28;20094;-51
2022/12/13 10:53:21;;;;;;;36.08;20.23;;;;;;;1.67;68.35;101149.06;5052725;28;20374;-51
2022/12/13 10:55:54;;;;;;;33.20;20.35;;;;;;;1.69;69.03;101149.19;5056204;28;20055;-50
2022/12/13 10:58:19;;;;;;;36.55;20.65;;;;;;;1.70;69.35;101138.25;5054545;28;20484;-50
2022/12/13 11:00:47;;;;;;;36.63;21.60;;;;;;;1.72;68.69;101141.78;5061573;28;20048;-48
2022/12/13 11:03:29;;;;;;;38.58;22.00;;;;;;;1.72;69.08;101141.78;5064630;28;20410;-43
2022/12/13 11:06:11;;;;;;;35.63;20.73;;;;;;;1.69;68.80;101132.31;5065252;28;20029;-47
2022/12/13 11:08:37;;;;;;;36.42;20.70;;;;;;;1.57;68.27;101123.88;5065395;28;20025;-50
2022/12/13 11:11:05;;;;;;;38.38;20.35;;;;;;;1.58;69.14;101129.06;5061187;28;20393;-50
2022/12/13 11:13:39;;;;;;;35.05;20.02;;;;;;;1.51;68.44;101126.00;5058004;28;20469;-52
2022/12/13 11:16:23;;;;;;;34.88;20.30;;;;;;;1.57;69.45;101123.88;5061680;28;20564;-49
2022/12/13 11:19:15;;;;;;;37.65;20.27;;;;;;;1.59;69.83;101123.22;5064907;28;20024;-52
2022/12/13 11:21:49;;;;;;;39.22;20.77;;;;;;;1.54;69.54;101121.16;5060309;28;20041;-51
2022/12/13 11:24:22;;;;;;;36.28;20.70;;;;;;;1.48;69.09;101120.72;5062693;28;20048;-51